createdAt,value
2018-12-13T00:01:46.603Z,-0.30
2018-12-13T00:04:14.093Z,-0.30
2018-12-13T00:06:41.610Z,-0.30
2018-12-13T00:09:09.119Z,-0.30
2018-12-13T00:11:36.718Z,-0.30
2018-12-13T00:14:05.994Z,-0.30
2018-12-13T00:16:33.482Z,-0.30
2018-12-13T00:19:00.993Z,-0.30
2018-12-13T00:21:28.502Z,-0.30
2018-12-13T00:23:57.464Z,-0.30
2018-12-13T00:26:25.847Z,-0.20
2018-12-13T00:28:53.357Z,-0.30
2018-12-13T00:31:20.850Z,-0.20
2018-12-13T00:33:48.562Z,-0.30
2018-12-13T00:36:16.070Z,-0.30
2018-12-13T00:38:43.585Z,-0.20
2018-12-13T00:41:11.107Z,-0.30
2018-12-13T00:43:38.612Z,-0.20
2018-12-13T00:46:06.087Z,-0.20
2018-12-13T00:48:33.595Z,-0.20
2018-12-13T00:51:01.077Z,-0.20
2018-12-13T00:53:28.596Z,-0.30
2018-12-13T00:55:56.069Z,-0.20
2018-12-13T00:58:23.574Z,-0.30
2018-12-13T01:00:51.073Z,-0.20
2018-12-13T01:03:18.590Z,-0.20
2018-12-13T01:05:46.088Z,-0.20
2018-12-13T01:08:13.599Z,-0.20
2018-12-13T01:10:41.083Z,-0.20
2018-12-13T01:13:08.591Z,-0.20
2018-12-13T01:15:36.141Z,-0.30
2018-12-13T01:18:03.649Z,-0.30
2018-12-13T01:20:31.222Z,-0.30
2018-12-13T01:22:58.758Z,-0.30
2018-12-13T01:25:26.299Z,-0.40
2018-12-13T01:27:53.796Z,-0.40
2018-12-13T01:30:21.507Z,-0.40
2018-12-13T01:32:49.056Z,-0.40
2018-12-13T01:35:16.544Z,-0.40
2018-12-13T01:37:44.051Z,-0.40
2018-12-13T01:40:11.562Z,-0.50
2018-12-13T01:42:43.942Z,-0.50
2018-12-13T01:45:11.854Z,-0.50
2018-12-13T01:54:42.533Z,-0.50
2018-12-13T01:57:10.784Z,-0.50
2018-12-13T01:59:39.484Z,-0.60
2018-12-13T02:02:07.831Z,-0.50
2018-12-13T02:04:35.452Z,-0.60
2018-12-13T02:07:03.561Z,-0.50
2018-12-13T02:24:10.017Z,-0.40
2018-12-13T02:26:38.073Z,-0.50
2018-12-13T02:29:05.662Z,-0.40
2018-12-13T02:31:33.797Z,-0.40
2018-12-13T02:39:32.975Z,-0.50
2018-12-13T02:42:00.579Z,-0.40
2018-12-13T02:44:29.068Z,-0.50
2018-12-13T02:54:50.567Z,-0.50
2018-12-13T02:57:18.126Z,-0.60
2018-12-13T02:59:45.950Z,-0.60
2018-12-13T03:02:20.079Z,-0.60
2018-12-13T03:22:10.656Z,-0.60
2018-12-13T03:24:41.348Z,-0.20
2018-12-13T03:27:08.944Z,-0.20
2018-12-13T03:29:39.383Z,-0.30
2018-12-13T03:32:08.037Z,-0.40
2018-12-13T03:34:37.017Z,-0.40
2018-12-13T03:37:08.023Z,-0.50
2018-12-13T03:39:36.875Z,-0.50
2018-12-13T03:42:09.516Z,-0.50
2018-12-13T03:44:42.247Z,-0.50
2018-12-13T03:47:09.865Z,-0.50
2018-12-13T03:49:37.465Z,-0.50
2018-12-13T03:52:08.815Z,-0.50
2018-12-13T03:54:36.463Z,-0.50
2018-12-13T03:57:04.326Z,-0.50
2018-12-13T03:59:31.928Z,-0.50
2018-12-13T04:04:49.981Z,-0.60
2018-12-13T04:07:18.262Z,-0.60
2018-12-13T04:09:45.840Z,-0.60
2018-12-13T04:12:14.628Z,-0.60
2018-12-13T04:15:01.643Z,-0.50
2018-12-13T04:17:37.164Z,-0.60
2018-12-13T04:20:05.210Z,-0.50
2018-12-13T04:22:33.703Z,-0.50
2018-12-13T04:27:52.744Z,-0.50
2018-12-13T04:30:23.064Z,-0.50
2018-12-13T04:32:52.569Z,-0.50
2018-12-13T04:35:21.135Z,-0.50
2018-12-13T04:37:49.278Z,-0.50
2018-12-13T04:40:17.298Z,-0.50
2018-12-13T04:45:37.136Z,-0.50
2018-12-13T04:50:58.941Z,-0.50
2018-12-13T04:53:27.248Z,-0.50
2018-12-13T04:55:55.398Z,-0.50
2018-12-13T04:58:25.326Z,-0.50
2018-12-13T05:00:55.184Z,-0.60
2018-12-13T05:03:25.385Z,-0.60
2018-12-13T05:17:26.927Z,-0.80
2018-12-13T05:19:55.966Z,-0.80
2018-12-13T05:22:24.881Z,-0.80
2018-12-13T05:24:52.749Z,-0.80
2018-12-13T05:30:16.279Z,-0.80
2018-12-13T05:38:25.231Z,-0.90
2018-12-13T05:40:56.823Z,-0.90
2018-12-13T05:43:25.864Z,-1.00
2018-12-13T05:45:54.030Z,-1.00
2018-12-13T05:56:53.285Z,-1.00
2018-12-13T05:59:21.847Z,-1.00
2018-12-13T06:01:49.462Z,-1.00
2018-12-13T06:19:40.838Z,-1.00
2018-12-13T06:22:09.089Z,-1.00
2018-12-13T06:24:36.671Z,-1.00
2018-12-13T06:27:05.453Z,-1.00
2018-12-13T06:36:53.915Z,-1.00
2018-12-13T06:39:21.491Z,-0.90
2018-12-13T06:41:56.588Z,-0.90
2018-12-13T06:44:24.225Z,-0.90
2018-12-13T07:08:41.241Z,-1.10
2018-12-13T07:11:08.926Z,-1.10
2018-12-13T07:13:38.228Z,-1.10
2018-12-13T07:16:05.817Z,-1.10
2018-12-13T07:18:33.376Z,-1.10
2018-12-13T07:23:34.878Z,-1.20
2018-12-13T07:26:02.525Z,-1.20
2018-12-13T07:28:30.171Z,-1.20
2018-12-13T07:43:37.753Z,-1.10
2018-12-13T07:51:46.546Z,-1.10
2018-12-13T07:54:14.156Z,-1.10
2018-12-13T07:56:46.462Z,-1.10
2018-12-13T07:59:14.142Z,-1.10
2018-12-13T08:01:44.909Z,-1.10
2018-12-13T08:04:12.473Z,-1.10
2018-12-13T08:06:39.996Z,-1.00
2018-12-13T08:09:07.658Z,-1.00
2018-12-13T08:11:35.234Z,-0.90
2018-12-13T08:14:02.875Z,-1.00
2018-12-13T08:16:30.481Z,-0.90
2018-12-13T08:32:50.408Z,-0.80
2018-12-13T08:35:20.884Z,-0.80
2018-12-13T08:37:49.136Z,-0.70
2018-12-13T08:40:18.878Z,-0.60
2018-12-13T08:42:56.935Z,-0.60
2018-12-13T08:52:16.412Z,-0.40
2018-12-13T08:57:35.379Z,-0.40
2018-12-13T09:00:03.951Z,-0.40
2018-12-13T09:16:31.413Z,-0.30
2018-12-13T09:18:56.350Z,-0.20
2018-12-13T09:21:27.465Z,-0.10
2018-12-13T09:23:57.363Z,-0.20
2018-12-13T09:26:26.258Z,-0.20
2018-12-13T09:29:34.935Z,-0.10
2018-12-13T09:32:05.130Z,0.00
2018-12-13T09:34:34.330Z,0.00
2018-12-13T09:37:01.979Z,0.00
2018-12-13T09:39:30.113Z,0.00
2018-12-13T09:41:58.892Z,0.00
2018-12-13T09:44:26.461Z,-0.20
2018-12-13T09:46:54.924Z,-0.10
2018-12-13T09:49:22.508Z,0.10
2018-12-13T09:51:50.241Z,0.30
2018-12-13T09:54:17.815Z,0.50
2018-12-13T09:56:46.051Z,0.50
2018-12-13T09:59:17.455Z,0.50
2018-12-13T10:01:45.037Z,0.60
2018-12-13T10:04:15.429Z,0.50
2018-12-13T10:06:42.992Z,0.40
2018-12-13T10:09:12.029Z,0.30
2018-12-13T10:11:39.709Z,0.50
2018-12-13T10:14:07.367Z,0.50
2018-12-13T10:16:34.952Z,0.60
2018-12-13T10:19:02.977Z,0.70
2018-12-13T10:21:30.928Z,0.70
2018-12-13T10:23:58.801Z,0.60
2018-12-13T10:26:26.635Z,0.60
2018-12-13T10:28:54.574Z,0.70
2018-12-13T10:31:22.130Z,0.70
2018-12-13T10:33:49.763Z,0.80
2018-12-13T10:36:17.930Z,0.90
2018-12-13T10:38:53.056Z,0.90
2018-12-13T10:41:20.512Z,0.80
2018-12-13T10:43:48.104Z,0.90
2018-12-13T10:46:15.637Z,0.70
2018-12-13T10:48:44.019Z,0.60
2018-12-13T10:51:15.296Z,0.40
2018-12-13T10:53:45.709Z,0.50
2018-12-13T10:56:13.821Z,0.50
2018-12-13T10:58:41.992Z,0.60
2018-12-13T11:01:27.165Z,0.50
2018-12-13T11:03:58.796Z,0.60
2018-12-13T11:06:26.727Z,0.70
2018-12-13T11:08:59.384Z,0.80
2018-12-13T11:11:24.495Z,1.00
2018-12-13T11:13:54.213Z,1.00
2018-12-13T11:16:22.103Z,0.90
2018-12-13T11:18:49.644Z,0.80
2018-12-13T11:21:17.631Z,0.90
2018-12-13T11:23:45.450Z,0.90
2018-12-13T11:26:13.308Z,0.80
2018-12-13T11:28:54.169Z,1.00
2018-12-13T11:31:32.645Z,1.10
2018-12-13T11:34:00.199Z,0.90
2018-12-13T11:36:28.154Z,0.80
2018-12-13T11:38:55.695Z,0.90
2018-12-13T11:41:23.243Z,0.90
2018-12-13T11:43:50.765Z,0.90
2018-12-13T11:46:18.343Z,1.10
2018-12-13T11:48:45.851Z,1.10
2018-12-13T11:51:13.406Z,1.10
2018-12-13T11:53:43.150Z,1.00
2018-12-13T11:56:13.035Z,0.90
2018-12-13T11:58:40.603Z,0.80
2018-12-13T12:01:08.157Z,0.80
2018-12-13T12:03:35.702Z,0.90
2018-12-13T12:06:03.355Z,1.10
2018-12-13T12:08:30.924Z,1.10
2018-12-13T12:10:58.526Z,1.10
2018-12-13T12:13:26.080Z,1.00
2018-12-13T12:15:53.610Z,1.00
2018-12-13T12:18:22.093Z,0.90
2018-12-13T12:20:52.115Z,0.90
2018-12-13T12:23:19.636Z,1.00
2018-12-13T12:25:48.988Z,1.00
2018-12-13T12:28:17.243Z,0.90
2018-12-13T12:30:47.357Z,0.80
2018-12-13T12:33:14.900Z,0.70
2018-12-13T12:35:42.520Z,0.70
2018-12-13T12:38:11.310Z,0.90
2018-12-13T12:40:39.600Z,0.80
2018-12-13T12:43:07.181Z,0.60
2018-12-13T12:45:39.661Z,0.60
2018-12-13T12:48:14.812Z,0.70
2018-12-13T12:50:42.367Z,0.60
2018-12-13T12:53:17.803Z,0.60
2018-12-13T12:55:45.368Z,0.60
2018-12-13T12:58:12.902Z,0.70
2018-12-13T13:00:42.265Z,0.70
2018-12-13T13:03:10.150Z,0.50
2018-12-13T13:05:41.017Z,0.60
2018-12-13T13:08:08.702Z,0.60
2018-12-13T13:10:39.364Z,0.60
2018-12-13T13:13:07.013Z,0.50
2018-12-13T13:15:34.620Z,0.50
2018-12-13T13:18:02.622Z,0.50
2018-12-13T13:20:31.825Z,0.40
2018-12-13T13:22:59.377Z,0.30
2018-12-13T13:28:18.528Z,0.20
2018-12-13T13:30:46.125Z,0.20
2018-12-13T13:33:15.613Z,0.20
2018-12-13T13:35:45.190Z,0.20
2018-12-13T13:38:15.473Z,0.20
2018-12-13T13:40:45.646Z,0.20
2018-12-13T13:43:13.994Z,0.20
2018-12-13T13:45:42.127Z,0.20
2018-12-13T13:48:12.303Z,0.20
2018-12-13T13:53:43.450Z,0.10
2018-12-13T13:56:11.767Z,0.00
2018-12-13T13:58:40.137Z,-0.10
2018-12-13T14:01:19.020Z,0.00
2018-12-13T14:03:47.681Z,0.00
2018-12-13T14:06:17.694Z,0.00
2018-12-13T14:08:46.346Z,0.10
2018-12-13T14:11:14.998Z,0.10
2018-12-13T14:13:49.507Z,0.10
2018-12-13T14:16:17.126Z,0.10
2018-12-13T14:18:46.853Z,-0.10
2018-12-13T14:21:15.703Z,-0.10
2018-12-13T14:23:43.673Z,-0.10
2018-12-13T14:26:14.870Z,-0.20
2018-12-13T14:28:45.998Z,-0.20
2018-12-13T14:31:15.027Z,-0.20
2018-12-13T14:39:26.288Z,-0.40
2018-12-13T14:41:53.876Z,-0.40
2018-12-13T14:44:21.539Z,-0.40
2018-12-13T14:46:52.508Z,-0.40
2018-12-13T14:49:20.099Z,-0.40
2018-12-13T14:51:48.959Z,-0.40
2018-12-13T14:54:16.649Z,-0.50
2018-12-13T14:56:47.824Z,-0.50
2018-12-13T14:59:15.677Z,-0.60
2018-12-13T15:04:36.660Z,-0.70
2018-12-13T15:07:05.745Z,-0.70
2018-12-13T15:09:36.127Z,-0.70
2018-12-13T15:12:13.509Z,-0.70
2018-12-13T15:14:44.972Z,-0.80
2018-12-13T15:17:14.994Z,-0.80
2018-12-13T15:19:43.838Z,-0.90
2018-12-13T15:22:13.098Z,-0.90
2018-12-13T15:30:22.760Z,-1.10
2018-12-13T15:32:50.514Z,-1.10
2018-12-13T15:35:19.957Z,-1.10
2018-12-13T15:40:39.885Z,-1.20
2018-12-13T15:43:07.576Z,-1.20
2018-12-13T15:45:35.343Z,-1.10
2018-12-13T15:48:03.125Z,-1.10
2018-12-13T15:50:30.758Z,-1.10
2018-12-13T15:53:01.229Z,-1.10
2018-12-13T15:55:28.990Z,-1.10
2018-12-13T15:57:57.056Z,-1.10
2018-12-13T16:58:26.330Z,-1.40
2018-12-13T17:12:17.646Z,-1.40
2018-12-13T17:14:45.223Z,-1.40
2018-12-13T17:17:12.789Z,-1.40
2018-12-13T17:19:41.085Z,-1.40
2018-12-13T17:30:40.911Z,-1.30
2018-12-13T17:33:11.558Z,-1.40
2018-12-13T17:35:39.536Z,-1.30
2018-12-13T17:38:07.888Z,-1.40
2018-12-13T17:40:38.837Z,-1.40
2018-12-13T17:43:10.393Z,-1.40
2018-12-13T18:05:25.411Z,-1.60
2018-12-13T18:10:44.434Z,-1.60
2018-12-13T18:13:12.155Z,-1.50
2018-12-13T18:15:46.429Z,-1.50
2018-12-13T18:18:16.886Z,-1.60
2018-12-13T18:20:49.103Z,-1.60
2018-12-13T18:37:22.221Z,-1.60
2018-12-13T18:39:49.827Z,-1.80
2018-12-13T18:44:50.545Z,-1.70
2018-12-13T18:58:52.139Z,-1.60
2018-12-13T19:01:34.847Z,-1.70
2018-12-13T19:16:54.883Z,-1.80
2018-12-13T19:19:24.199Z,-1.80
2018-12-13T19:38:44.896Z,-1.70
2018-12-13T19:47:35.007Z,-1.70
2018-12-13T20:03:37.359Z,-1.90
2018-12-13T20:08:55.232Z,-1.90
2018-12-13T20:11:33.081Z,-1.90
2018-12-13T20:14:07.303Z,-1.80
2018-12-13T20:16:37.440Z,-1.80
2018-12-13T20:34:36.282Z,-1.80
2018-12-13T20:37:04.310Z,-1.80
2018-12-13T20:39:33.585Z,-1.80
2018-12-13T20:42:01.264Z,-1.80
2018-12-13T20:53:00.477Z,-1.70
2018-12-13T20:55:28.957Z,-1.80
2018-12-13T20:58:07.988Z,-1.80
2018-12-13T21:00:36.772Z,-1.70
2018-12-13T21:03:08.369Z,-1.80
2018-12-13T21:05:36.046Z,-1.70
2018-12-13T21:08:08.588Z,-1.70
2018-12-13T21:10:38.946Z,-1.70
2018-12-13T21:13:06.683Z,-1.70
2018-12-13T21:15:34.817Z,-1.60
2018-12-13T21:18:05.568Z,-1.60
2018-12-13T21:20:33.504Z,-1.70
2018-12-13T21:26:02.584Z,-1.80
2018-12-13T21:28:30.382Z,-1.90
2018-12-13T21:30:58.903Z,-1.90
2018-12-13T21:33:26.459Z,-1.90
2018-12-13T21:35:54.669Z,-1.90
2018-12-13T21:38:22.473Z,-1.90
2018-12-13T21:40:50.106Z,-1.80
2018-12-13T21:43:46.834Z,-1.90
2018-12-13T22:11:31.124Z,-2.20
2018-12-13T22:14:00.527Z,-2.20
2018-12-13T23:14:10.816Z,-2.10
2018-12-13T23:16:38.515Z,-2.20
2018-12-13T23:19:15.908Z,-2.20
2018-12-13T23:21:46.448Z,-2.20
2018-12-13T23:24:14.078Z,-2.10
2018-12-13T23:29:32.474Z,-2.00
2018-12-13T23:32:01.693Z,-2.00
2018-12-13T23:34:37.661Z,-2.00
2018-12-13T23:41:18.355Z,-2.00
2018-12-13T23:58:23.626Z,-2.00
